Time;durP1;ratioP1;P1;durP2;ratioP2;P2;SDS_P1;SDS_P2;PMS_P1;PMS_P2;Temp;Humidity;BMP_temperature;BMP_pressure;BME280_temperature;BME280_humidity;BME280_pressure;Samples;Min_cycle;Max_cycle;Signal;HPM_P1;HPM_P2
2022/11/11 00:00:04;;;;;;;7.50;6.80;;;;;;;8.55;100.00;100024.53;4136100;28;20698;-49
2022/11/11 00:02:06;;;;;;;6.82;6.07;;;;;;;8.30;100.00;100022.47;4135916;28;20299;-48
2022/11/11 00:04:07;;;;;;;7.45;6.55;;;;;;;7.98;100.00;100026.59;4133472;28;20209;-49
2022/11/11 00:06:12;;;;;;;6.10;5.55;;;;;;;7.87;100.00;100038.00;4115865;28;20744;-48
2022/11/11 00:08:14;;;;;;;6.93;5.20;;;;;;;7.79;100.00;100045.47;4135461;28;20289;-48
2022/11/11 00:10:15;;;;;;;7.32;6.25;;;;;;;7.89;100.00;100040.56;4117430;28;20218;-49
2022/11/11 00:12:17;;;;;;;6.57;5.40;;;;;;;7.94;100.00;100043.50;4151846;28;20224;-48
2022/11/11 00:14:19;;;;;;;8.25;6.20;;;;;;;7.93;100.00;100039.09;4150284;28;20212;-49
2022/11/11 00:16:21;;;;;;;7.28;6.57;;;;;;;7.92;100.00;100035.56;4119342;28;20683;-48
2022/11/11 00:25:24;;;;;;;7.65;6.82;;;;;;;7.70;100.00;100035.75;4133690;28;20212;-48
2022/11/11 00:27:26;;;;;;;8.18;6.60;;;;;;;7.75;100.00;100036.03;4133866;28;20292;-49
2022/11/11 00:29:28;;;;;;;7.07;4.88;;;;;;;7.85;100.00;100036.53;4134516;28;20217;-49
2022/11/11 00:31:29;;;;;;;8.00;7.20;;;;;;;7.83;100.00;100030.44;4135431;28;20212;-48
2022/11/11 00:33:31;;;;;;;6.45;5.55;;;;;;;7.63;100.00;100034.84;4130823;28;20225;-49
2022/11/11 00:37:53;;;;;;;11.35;5.78;;;;;;;7.61;100.00;100047.81;4135913;28;20237;-48
2022/11/11 00:39:58;;;;;;;6.40;5.78;;;;;;;7.69;100.00;100047.69;4134332;28;20687;-50
2022/11/11 00:42:00;;;;;;;7.43;6.47;;;;;;;7.58;100.00;100059.94;4137963;28;20222;-50
2022/11/11 00:44:01;;;;;;;11.55;6.25;;;;;;;7.65;100.00;100054.56;4138174;28;20214;-48
2022/11/11 00:51:00;;;;;;;7.25;6.05;;;;;;;8.04;100.00;100057.66;4135224;28;20221;-48
2022/11/11 00:53:03;;;;;;;7.53;5.90;;;;;;;7.92;100.00;100057.34;4120507;28;20230;-47
2022/11/11 00:55:05;;;;;;;6.43;5.78;;;;;;;7.97;100.00;100059.50;4135579;28;20228;-49
2022/11/11 00:57:07;;;;;;;7.45;5.93;;;;;;;8.03;100.00;100056.81;4137642;28;20261;-48
2022/11/11 00:59:09;;;;;;;6.85;6.10;;;;;;;7.85;100.00;100061.03;4130656;28;20251;-48
2022/11/11 01:01:10;;;;;;;7.80;7.00;;;;;;;7.86;100.00;100060.00;4137683;28;20198;-47
2022/11/11 01:03:12;;;;;;;8.50;7.43;;;;;;;7.84;100.00;100070.25;4136743;28;20650;-48
2022/11/11 01:05:14;;;;;;;7.95;6.28;;;;;;;7.77;100.00;100063.91;4137930;28;20276;-48
2022/11/11 01:07:16;;;;;;;6.25;5.13;;;;;;;7.58;100.00;100075.44;4128949;28;20571;-48
2022/11/11 01:09:18;;;;;;;6.82;5.85;;;;;;;7.64;100.00;100070.06;4138410;28;20645;-48
2022/11/11 01:11:21;;;;;;;7.00;6.20;;;;;;;7.73;100.00;100060.72;4132128;28;20232;-48
2022/11/11 01:13:28;;;;;;;6.45;5.85;;;;;;;7.45;100.00;100065.25;4149666;28;20307;-49
2022/11/11 01:15:32;;;;;;;7.75;6.00;;;;;;;7.62;100.00;100065.84;4118636;28;20245;-48
2022/11/11 01:17:34;;;;;;;6.18;5.63;;;;;;;7.46;100.00;100066.06;4136906;28;20779;-48
2022/11/11 01:19:36;;;;;;;7.22;6.40;;;;;;;7.59;100.00;100055.31;4136369;28;20644;-47
2022/11/11 01:21:38;;;;;;;6.10;5.28;;;;;;;7.48;100.00;100058.56;4112507;28;21189;-50
2022/11/11 01:23:41;;;;;;;6.47;5.35;;;;;;;7.52;100.00;100059.84;4132158;28;20216;-48
2022/11/11 01:25:45;;;;;;;5.75;5.05;;;;;;;7.27;100.00;100050.34;4134227;28;20296;-48
2022/11/11 01:27:46;;;;;;;5.93;5.28;;;;;;;7.35;100.00;100058.44;4130143;28;20297;-48
2022/11/11 01:29:48;;;;;;;5.45;4.90;;;;;;;7.34;100.00;100051.25;4134682;28;20665;-49
2022/11/11 01:31:50;;;;;;;6.47;4.93;;;;;;;7.36;100.00;100052.75;4135414;28;20730;-48
2022/11/11 01:33:52;;;;;;;5.57;4.63;;;;;;;7.46;100.00;100044.28;4150619;28;20236;-48
2022/11/11 01:35:53;;;;;;;5.18;4.72;;;;;;;7.58;100.00;100051.78;4134408;28;20263;-48
2022/11/11 01:37:58;;;;;;;5.50;4.93;;;;;;;7.68;100.00;100040.56;4148313;28;20213;-49
2022/11/11 01:40:01;;;;;;;8.10;5.13;;;;;;;7.73;100.00;100048.97;4136887;28;20729;-48
2022/11/11 01:42:03;;;;;;;5.43;4.93;;;;;;;7.86;100.00;100046.38;4121945;28;20737;-48
2022/11/11 01:44:10;;;;;;;7.20;6.50;;;;;;;7.91;100.00;100049.38;4138980;28;20301;-47
2022/11/11 01:46:25;;;;;;;5.10;4.50;;;;;;;7.99;100.00;100046.50;4138041;28;20556;-48
2022/11/11 01:51:00;;;;;;;6.38;5.25;;;;;;;7.73;100.00;100047.09;4137182;28;20257;-48
2022/11/11 01:53:01;;;;;;;5.30;4.40;;;;;;;7.84;100.00;100045.75;4147563;28;20233;-48
2022/11/11 01:55:13;;;;;;;6.78;5.05;;;;;;;7.87;100.00;100042.59;4133148;28;21207;-49
2022/11/11 01:57:24;;;;;;;6.80;5.68;;;;;;;7.52;100.00;100032.63;4126224;28;20301;-48
2022/11/11 01:59:26;;;;;;;6.78;5.95;;;;;;;7.35;100.00;100037.47;4139001;28;20710;-48
2022/11/11 02:01:28;;;;;;;5.07;4.40;;;;;;;7.39;100.00;100041.50;4118692;28;20214;-48
2022/11/11 02:03:33;;;;;;;5.53;4.65;;;;;;;7.37;100.00;100040.00;4143385;28;20718;-49
2022/11/11 02:05:46;;;;;;;4.70;4.20;;;;;;;7.44;100.00;100041.78;4139428;28;20215;-48
2022/11/11 02:07:48;;;;;;;6.60;4.15;;;;;;;7.58;100.00;100038.16;4142318;28;20210;-49
2022/11/11 02:09:51;;;;;;;4.75;4.35;;;;;;;7.76;100.00;100041.25;4140056;28;20206;-48
2022/11/11 02:16:35;;;;;;;3.88;3.50;;;;;;;7.84;100.00;100046.59;4141416;28;20271;-48
2022/11/11 02:18:37;;;;;;;5.43;4.53;;;;;;;7.89;100.00;100046.00;4140452;28;20206;-48
2022/11/11 02:20:42;;;;;;;5.07;4.57;;;;;;;7.59;100.00;100049.88;4142004;28;20875;-48
2022/11/11 02:22:57;;;;;;;4.68;4.20;;;;;;;7.64;100.00;100052.88;4127020;28;20268;-48
2022/11/11 02:24:59;;;;;;;4.47;4.07;;;;;;;7.61;100.00;100053.28;4124153;28;20281;-48
2022/11/11 02:27:02;;;;;;;4.47;3.97;;;;;;;7.63;100.00;100051.19;4135778;28;20689;-50
2022/11/11 02:29:08;;;;;;;4.07;3.75;;;;;;;7.64;100.00;100053.72;4140256;28;20241;-49
2022/11/11 02:31:10;;;;;;;6.68;4.07;;;;;;;7.50;100.00;100045.59;4154184;28;20229;-50
2022/11/11 02:33:11;;;;;;;4.43;3.65;;;;;;;7.29;100.00;100026.50;4141473;28;20771;-50
2022/11/11 02:35:23;;;;;;;4.07;3.78;;;;;;;7.22;100.00;100036.50;4136984;28;20564;-49
2022/11/11 02:37:26;;;;;;;6.15;5.45;;;;;;;7.20;100.00;100033.94;4141237;28;20206;-49
2022/11/11 02:39:28;;;;;;;6.68;4.88;;;;;;;7.29;100.00;100021.06;4138457;28;21006;-51
2022/11/11 02:41:56;;;;;;;5.32;4.00;;;;;;;7.36;100.00;100033.69;4147857;28;20701;-49
2022/11/11 02:43:58;;;;;;;4.53;3.53;;;;;;;7.34;100.00;100034.94;4138033;28;20208;-49
2022/11/11 02:46:01;;;;;;;3.22;2.92;;;;;;;7.46;100.00;100038.84;4136896;28;20201;-49
2022/11/11 02:48:03;;;;;;;4.15;3.78;;;;;;;7.45;100.00;100037.16;4151226;28;20302;-49
2022/11/11 02:50:05;;;;;;;3.15;2.85;;;;;;;7.54;100.00;100031.41;4136269;28;20312;-49
2022/11/11 02:52:07;;;;;;;3.92;3.58;;;;;;;7.54;100.00;100038.72;4155129;28;20259;-50
2022/11/11 02:54:09;;;;;;;5.75;3.58;;;;;;;7.55;100.00;100037.69;4134663;28;20221;-49
2022/11/11 02:56:11;;;;;;;3.78;2.80;;;;;;;7.55;100.00;100038.53;4142135;28;20240;-49
2022/11/11 02:58:14;;;;;;;3.45;3.15;;;;;;;7.61;100.00;100045.09;4141173;28;20209;-49
2022/11/11 03:00:16;;;;;;;3.58;3.28;;;;;;;7.41;100.00;100047.59;4136059;28;20247;-50
2022/11/11 03:02:18;;;;;;;3.83;3.53;;;;;;;7.49;100.00;100046.63;4134011;28;20236;-49
2022/11/11 03:04:20;;;;;;;4.35;3.95;;;;;;;7.47;100.00;100051.41;4137105;28;20596;-50
2022/11/11 03:06:22;;;;;;;3.22;2.92;;;;;;;7.39;100.00;100040.66;4132748;28;20583;-49
2022/11/11 03:08:24;;;;;;;3.58;3.25;;;;;;;7.32;100.00;100045.19;4137862;28;20210;-49
2022/11/11 03:10:26;;;;;;;3.92;3.40;;;;;;;7.31;100.00;100047.06;4121093;28;20252;-49
2022/11/11 03:12:28;;;;;;;4.43;3.58;;;;;;;7.42;100.00;100053.91;4137669;28;20463;-49
2022/11/11 03:14:30;;;;;;;3.55;3.22;;;;;;;7.28;100.00;100052.06;4135969;28;20216;-49
2022/11/11 03:18:53;;;;;;;3.50;3.20;;;;;;;7.06;100.00;100059.31;4135066;28;20631;-51
2022/11/11 03:21:04;;;;;;;3.53;3.15;;;;;;;7.06;100.00;100064.75;4135389;28;20428;-49
2022/11/11 03:23:26;;;;;;;4.07;3.35;;;;;;;7.06;100.00;100063.91;4139283;28;20233;-48
2022/11/11 03:25:37;;;;;;;3.35;3.05;;;;;;;6.93;100.00;100077.34;4134293;28;20903;-49
2022/11/11 03:27:40;;;;;;;3.25;2.95;;;;;;;7.14;100.00;100074.69;4135438;28;20301;-50
2022/11/11 03:29:42;;;;;;;3.80;3.28;;;;;;;7.09;100.00;100071.72;4138375;28;20742;-48
2022/11/11 03:31:44;;;;;;;3.55;2.75;;;;;;;7.14;100.00;100077.41;4136578;28;20249;-48
2022/11/11 03:33:46;;;;;;;3.58;3.25;;;;;;;7.21;100.00;100084.63;4140038;28;20243;-48
2022/11/11 03:35:48;;;;;;;5.10;3.55;;;;;;;7.25;100.00;100085.09;4135818;28;20211;-49
2022/11/11 03:40:10;;;;;;;3.50;3.20;;;;;;;7.28;100.00;100095.63;4133697;28;20788;-48
2022/11/11 03:42:12;;;;;;;3.15;2.85;;;;;;;7.36;100.00;100095.50;4140708;28;20275;-48
2022/11/11 03:44:13;;;;;;;4.28;2.88;;;;;;;7.38;100.00;100107.03;4133030;28;20289;-48
2022/11/11 03:46:16;;;;;;;4.30;3.90;;;;;;;7.35;100.00;100099.28;4123481;28;20299;-48
2022/11/11 03:48:19;;;;;;;4.43;3.35;;;;;;;7.35;100.00;100100.09;4126811;28;20202;-50
2022/11/11 03:50:22;;;;;;;3.60;2.92;;;;;;;7.39;100.00;100093.25;4138552;28;20579;-51
2022/11/11 03:52:26;;;;;;;4.10;3.65;;;;;;;7.42;100.00;100102.91;4138546;28;20226;-50
2022/11/11 03:54:30;;;;;;;4.10;2.78;;;;;;;7.52;100.00;100100.72;4132606;28;20221;-50
2022/11/11 03:56:33;;;;;;;5.05;3.88;;;;;;;7.50;100.00;100100.06;4140927;28;20205;-50
2022/11/11 03:58:36;;;;;;;3.28;3.08;;;;;;;7.45;100.00;100102.53;4139901;28;20217;-49
2022/11/11 04:00:42;;;;;;;4.25;3.85;;;;;;;7.44;100.00;100100.84;4136628;28;20675;-48
2022/11/11 04:12:15;;;;;;;3.15;2.72;;;;;;;7.39;100.00;100116.91;4135724;28;20645;-50
2022/11/11 04:16:43;;;;;;;2.42;2.28;;;;;;;7.33;100.00;100109.50;4137636;28;20737;-48
2022/11/11 04:23:37;;;;;;;2.17;1.98;;;;;;;7.14;100.00;100124.53;4138009;28;20219;-49
2022/11/11 04:25:54;;;;;;;1.73;1.63;;;;;;;7.18;100.00;100122.28;4117704;28;20210;-49
2022/11/11 04:30:18;;;;;;;1.75;1.65;;;;;;;7.19;100.00;100119.38;4136273;28;20667;-49
2022/11/11 04:32:34;;;;;;;2.15;2.00;;;;;;;7.16;100.00;100113.47;4139442;28;20748;-51
2022/11/11 04:34:38;;;;;;;2.05;1.88;;;;;;;7.22;100.00;100123.59;4151508;28;20213;-50
2022/11/11 04:36:41;;;;;;;2.08;1.70;;;;;;;7.22;100.00;100118.16;4103498;28;20654;-49
2022/11/11 04:41:07;;;;;;;2.20;2.00;;;;;;;6.78;100.00;100120.03;4134518;28;20245;-50
2022/11/11 04:43:13;;;;;;;2.20;2.00;;;;;;;6.69;100.00;100123.88;4138529;28;20253;-50
2022/11/11 04:45:34;;;;;;;1.70;1.58;;;;;;;6.66;100.00;100121.53;4134895;28;20288;-49
2022/11/11 04:47:38;;;;;;;2.00;1.77;;;;;;;6.63;100.00;100130.06;4138962;28;20575;-49
2022/11/11 04:49:44;;;;;;;1.75;1.65;;;;;;;6.43;100.00;100137.06;4135308;28;20205;-50
2022/11/11 04:54:11;;;;;;;1.58;1.48;;;;;;;6.40;100.00;100132.84;4134639;28;20219;-48
2022/11/11 04:58:36;;;;;;;1.45;1.35;;;;;;;6.25;100.00;100128.38;4134632;28;20217;-49
2022/11/11 05:00:41;;;;;;;3.40;1.55;;;;;;;6.39;100.00;100135.72;4133688;28;20210;-49
2022/11/11 05:05:06;;;;;;;1.40;1.25;;;;;;;6.03;100.00;100134.69;4135532;28;20236;-49
2022/11/11 05:09:29;;;;;;;2.40;1.60;;;;;;;6.28;100.00;100134.28;4129921;28;20257;-49
2022/11/11 05:11:33;;;;;;;1.48;1.38;;;;;;;6.29;100.00;100140.59;4130855;28;20233;-49
2022/11/11 05:22:57;;;;;;;1.52;1.42;;;;;;;6.31;100.00;100138.53;4134145;28;20233;-49
2022/11/11 05:27:22;;;;;;;1.50;1.40;;;;;;;6.36;100.00;100136.13;4128253;28;20329;-50
2022/11/11 05:29:24;;;;;;;1.58;1.48;;;;;;;6.37;100.00;100141.34;4130916;28;20296;-49
2022/11/11 05:31:26;;;;;;;1.23;1.17;;;;;;;6.28;100.00;100131.59;4133589;28;20308;-49
2022/11/11 05:33:28;;;;;;;1.55;1.35;;;;;;;6.07;100.00;100133.28;4132015;28;21701;-49
2022/11/11 05:35:30;;;;;;;2.75;1.40;;;;;;;6.02;100.00;100128.41;4133439;28;20213;-49
2022/11/11 05:37:31;;;;;;;1.27;1.20;;;;;;;6.17;100.00;100137.44;4126366;28;20216;-49
2022/11/11 05:39:33;;;;;;;1.58;1.48;;;;;;;6.08;100.00;100143.97;4131700;28;20220;-50
2022/11/11 05:41:35;;;;;;;1.20;1.10;;;;;;;6.11;100.00;100137.34;4132283;28;20203;-48
2022/11/11 05:43:36;;;;;;;1.08;1.08;;;;;;;6.15;100.00;100136.78;4130751;28;20213;-49
2022/11/11 05:45:40;;;;;;;1.10;1.10;;;;;;;6.19;100.00;100134.53;4135263;28;20241;-49
2022/11/11 05:47:42;;;;;;;1.33;1.23;;;;;;;6.29;100.00;100135.16;4133643;28;20206;-49
2022/11/11 05:49:43;;;;;;;1.40;1.30;;;;;;;5.95;100.00;100134.75;4148016;28;20263;-49
2022/11/11 05:51:46;;;;;;;1.30;1.20;;;;;;;6.09;100.00;100134.78;4135942;28;20223;-48
2022/11/11 05:53:47;;;;;;;1.38;1.27;;;;;;;6.16;100.00;100143.91;4133345;28;20574;-49
2022/11/11 05:55:52;;;;;;;1.52;1.42;;;;;;;6.19;100.00;100134.53;4128684;28;20205;-49
2022/11/11 05:57:54;;;;;;;1.27;1.17;;;;;;;6.22;100.00;100139.63;4132545;28;20205;-49
2022/11/11 05:59:57;;;;;;;1.40;1.30;;;;;;;6.26;100.00;100141.81;4132848;28;20259;-49
2022/11/11 06:01:59;;;;;;;1.30;1.23;;;;;;;6.36;100.00;100144.25;4132013;28;20221;-50
2022/11/11 06:04:02;;;;;;;1.15;1.00;;;;;;;6.43;100.00;100142.50;4138165;28;20205;-49
2022/11/11 06:06:06;;;;;;;1.70;1.60;;;;;;;6.53;100.00;100148.50;4135810;28;20719;-49
2022/11/11 06:08:08;;;;;;;1.17;1.17;;;;;;;6.54;100.00;100148.34;4136433;28;20305;-49
2022/11/11 06:10:31;;;;;;;1.35;1.25;;;;;;;6.51;100.00;100156.00;4138242;28;20209;-51
2022/11/11 06:13:00;;;;;;;1.45;1.38;;;;;;;6.40;100.00;100159.16;4131316;28;20269;-49
2022/11/11 06:14:55;;;;;;;1.65;1.55;;;;;;;6.36;100.00;100164.13;4132779;28;20316;-49
2022/11/11 06:16:56;;;;;;;1.30;1.20;;;;;;;6.31;100.00;100165.72;4135956;28;20293;-49
2022/11/11 06:18:59;;;;;;;1.45;1.35;;;;;;;6.28;100.00;100172.34;4131532;28;20268;-48
2022/11/11 06:21:00;;;;;;;1.83;1.52;;;;;;;6.25;100.00;100171.88;4138366;28;20660;-49
2022/11/11 06:23:03;;;;;;;1.63;1.52;;;;;;;6.37;100.00;100181.28;4130649;28;20769;-48
2022/11/11 06:27:25;;;;;;;1.42;1.35;;;;;;;6.21;100.00;100178.69;4137017;28;20301;-49
2022/11/11 06:29:27;;;;;;;1.67;1.58;;;;;;;6.23;100.00;100190.25;4136849;28;20260;-49
2022/11/11 06:31:29;;;;;;;1.55;1.45;;;;;;;6.24;100.00;100189.22;4136780;28;20800;-49
2022/11/11 06:33:31;;;;;;;1.63;1.52;;;;;;;6.31;100.00;100182.88;4136686;28;20232;-48
2022/11/11 06:35:37;;;;;;;1.80;1.70;;;;;;;6.08;100.00;100184.75;4133078;28;20307;-48
2022/11/11 06:37:39;;;;;;;1.40;1.30;;;;;;;5.78;100.00;100180.16;4133506;28;20213;-48
2022/11/11 06:39:40;;;;;;;1.80;1.70;;;;;;;5.81;100.00;100184.41;4148039;28;20691;-48
2022/11/11 06:41:42;;;;;;;1.63;1.52;;;;;;;5.94;100.00;100190.94;4116571;28;20221;-48
2022/11/11 06:43:44;;;;;;;1.48;1.38;;;;;;;6.00;100.00;100184.81;4149322;28;20220;-49
2022/11/11 06:45:50;;;;;;;1.30;1.00;;;;;;;6.13;100.00;100195.06;4149287;28;20220;-47
2022/11/11 06:47:52;;;;;;;2.20;2.00;;;;;;;6.23;100.00;100190.25;4149083;28;20714;-48
2022/11/11 06:49:53;;;;;;;2.08;1.58;;;;;;;6.18;100.00;100193.50;4140153;28;20645;-48
2022/11/11 06:51:55;;;;;;;1.83;1.73;;;;;;;6.27;100.00;100191.56;4121034;28;20254;-48
2022/11/11 06:53:57;;;;;;;2.47;1.55;;;;;;;6.14;100.00;100191.31;4135156;28;20663;-48
2022/11/11 06:55:59;;;;;;;1.38;1.33;;;;;;;6.32;100.00;100200.03;4134180;28;20698;-48
2022/11/11 06:58:19;;;;;;;1.70;1.60;;;;;;;5.83;100.00;100196.78;4136350;28;20210;-48
2022/11/11 07:00:21;;;;;;;1.50;1.40;;;;;;;5.71;100.00;100192.78;4133452;28;20205;-48
2022/11/11 07:02:23;;;;;;;1.48;1.40;;;;;;;5.78;100.00;100201.03;4116279;28;20696;-48
2022/11/11 07:04:25;;;;;;;4.93;1.67;;;;;;;5.76;100.00;100203.09;4150813;28;20311;-48
2022/11/11 07:06:29;;;;;;;1.17;1.17;;;;;;;5.85;100.00;100207.47;4136700;28;20214;-47
2022/11/11 07:08:31;;;;;;;1.48;1.38;;;;;;;5.75;100.00;100215.00;4141928;28;20210;-49
2022/11/11 07:10:34;;;;;;;1.50;1.40;;;;;;;5.90;100.00;100210.50;4137688;28;20213;-48
2022/11/11 07:12:39;;;;;;;2.00;1.90;;;;;;;5.98;100.00;100218.59;4134685;28;20265;-48
2022/11/11 07:14:40;;;;;;;1.83;1.73;;;;;;;5.94;100.00;100220.84;4134363;28;20667;-48
2022/11/11 07:16:42;;;;;;;1.25;1.15;;;;;;;5.95;100.00;100218.97;4135128;28;20642;-48
2022/11/11 07:18:44;;;;;;;1.77;1.63;;;;;;;5.71;100.00;100213.63;4137920;28;22161;-48
2022/11/11 07:20:46;;;;;;;1.42;1.35;;;;;;;5.74;100.00;100213.28;4139358;28;20237;-48
2022/11/11 07:22:48;;;;;;;2.35;2.20;;;;;;;5.87;100.00;100221.72;4140705;28;20358;-49
2022/11/11 07:24:50;;;;;;;1.60;1.50;;;;;;;5.80;100.00;100232.47;4150794;28;20213;-48
2022/11/11 07:26:52;;;;;;;1.40;1.40;;;;;;;5.82;100.00;100229.59;4126352;28;20719;-48
2022/11/11 07:28:54;;;;;;;1.05;1.05;;;;;;;5.75;100.00;100223.13;4131038;28;20313;-47
2022/11/11 07:30:56;;;;;;;1.45;1.45;;;;;;;5.46;100.00;100217.47;4125827;28;20201;-51
2022/11/11 07:32:58;;;;;;;1.73;1.63;;;;;;;5.69;100.00;100224.66;4133041;28;20234;-48
2022/11/11 07:34:59;;;;;;;1.10;1.10;;;;;;;5.84;100.00;100227.53;4137987;28;20236;-48
2022/11/11 07:37:01;;;;;;;1.60;1.50;;;;;;;5.90;100.00;100221.38;4140250;28;20715;-47
2022/11/11 07:39:03;;;;;;;1.20;1.20;;;;;;;5.84;100.00;100217.47;4138095;28;20216;-48
2022/11/11 07:41:09;;;;;;;1.30;1.20;;;;;;;5.75;100.00;100217.69;4139039;28;20621;-48
2022/11/11 07:43:11;;;;;;;0.88;0.80;;;;;;;5.59;100.00;100217.75;4135628;28;20213;-49
2022/11/11 07:45:14;;;;;;;0.90;0.90;;;;;;;5.52;100.00;100219.50;4132548;28;20299;-50
2022/11/11 07:47:19;;;;;;;1.33;1.30;;;;;;;5.51;100.00;100218.66;4136936;28;20206;-49
2022/11/11 07:49:20;;;;;;;1.02;1.02;;;;;;;5.68;100.00;100222.97;4138240;28;20218;-50
2022/11/11 07:51:22;;;;;;;1.25;1.25;;;;;;;5.67;100.00;100221.28;4136351;28;20224;-49
2022/11/11 07:53:27;;;;;;;0.93;0.93;;;;;;;5.56;100.00;100223.56;4137537;28;20291;-50
2022/11/11 07:55:31;;;;;;;1.30;1.30;;;;;;;5.57;100.00;100230.69;4136009;28;21841;-49
2022/11/11 07:57:33;;;;;;;1.30;1.20;;;;;;;5.65;100.00;100227.91;4136769;28;20733;-50
2022/11/11 07:59:35;;;;;;;1.35;1.30;;;;;;;5.73;100.00;100225.16;4135504;28;20210;-50
2022/11/11 08:01:37;;;;;;;1.20;1.20;;;;;;;5.59;100.00;100228.63;4131268;28;20205;-51
2022/11/11 08:03:48;;;;;;;1.05;1.00;;;;;;;5.57;100.00;100225.25;4130810;28;20206;-51
2022/11/11 08:05:50;;;;;;;1.40;1.30;;;;;;;5.76;100.00;100227.53;4127844;28;20254;-51
2022/11/11 08:07:52;;;;;;;1.10;1.10;;;;;;;5.96;100.00;100226.09;4130482;28;20853;-49
2022/11/11 08:09:54;;;;;;;1.08;1.08;;;;;;;6.04;100.00;100223.31;4141881;28;20215;-50
2022/11/11 08:14:22;;;;;;;1.58;1.48;;;;;;;6.17;100.00;100229.84;4136042;28;20238;-50
2022/11/11 08:16:24;;;;;;;1.23;1.13;;;;;;;6.30;100.00;100234.69;4137091;28;20239;-48
2022/11/11 08:18:25;;;;;;;0.90;0.90;;;;;;;6.31;100.00;100236.38;4119683;28;20739;-48
2022/11/11 08:20:28;;;;;;;1.10;1.10;;;;;;;6.43;100.00;100234.94;4136070;28;20260;-49
2022/11/11 08:22:41;;;;;;;1.45;1.35;;;;;;;6.53;100.00;100235.53;4150949;28;20225;-51
2022/11/11 08:25:02;;;;;;;0.90;0.90;;;;;;;6.56;100.00;100235.19;4138200;28;20212;-48
2022/11/11 08:27:06;;;;;;;0.80;0.80;;;;;;;6.54;100.00;100231.78;4146266;28;20658;-49
2022/11/11 08:29:08;;;;;;;1.20;1.20;;;;;;;6.54;100.00;100231.78;4134752;28;20673;-48
2022/11/11 08:31:10;;;;;;;1.35;1.27;;;;;;;6.42;100.00;100233.25;4147224;28;20220;-48
2022/11/11 08:33:12;;;;;;;1.40;1.40;;;;;;;6.51;100.00;100226.72;4132627;28;20791;-49
2022/11/11 08:35:33;;;;;;;1.45;1.35;;;;;;;6.41;100.00;100231.53;4130459;28;20678;-48
2022/11/11 08:37:35;;;;;;;1.55;1.45;;;;;;;6.45;100.00;100227.44;4135307;28;20213;-48
2022/11/11 08:39:37;;;;;;;1.00;1.00;;;;;;;6.63;100.00;100215.22;4153348;28;20296;-48
2022/11/11 08:41:39;;;;;;;1.70;1.60;;;;;;;6.67;100.00;100216.53;4119220;28;20741;-47
2022/11/11 08:43:40;;;;;;;1.27;1.27;;;;;;;6.67;100.00;100215.69;4136618;28;20229;-49
2022/11/11 08:45:42;;;;;;;1.10;1.10;;;;;;;6.73;100.00;100214.94;4135620;28;20636;-48
2022/11/11 08:47:44;;;;;;;1.38;1.33;;;;;;;6.74;100.00;100216.63;4139034;28;20304;-48
2022/11/11 08:49:48;;;;;;;1.20;1.10;;;;;;;6.81;100.00;100223.03;4137207;28;20275;-48
2022/11/11 08:51:49;;;;;;;1.00;1.00;;;;;;;6.80;100.00;100224.06;4135038;28;20241;-48
2022/11/11 08:53:51;;;;;;;1.45;1.35;;;;;;;6.83;100.00;100223.72;4136560;28;20591;-48
2022/11/11 08:55:53;;;;;;;1.30;1.20;;;;;;;6.92;100.00;100219.88;4136952;28;20210;-49
2022/11/11 08:57:59;;;;;;;2.83;1.33;;;;;;;6.89;100.00;100225.72;4136970;28;20649;-48
2022/11/11 09:00:02;;;;;;;1.48;1.38;;;;;;;6.91;100.00;100234.53;4130677;28;20217;-49
2022/11/11 09:02:04;;;;;;;1.63;1.50;;;;;;;6.95;100.00;100239.41;4133551;28;20237;-48
2022/11/11 09:04:05;;;;;;;1.70;1.60;;;;;;;6.84;100.00;100233.56;4141156;28;20235;-50
2022/11/11 09:06:28;;;;;;;1.15;1.13;;;;;;;6.89;100.00;100237.41;4124897;28;20209;-49
2022/11/11 09:08:30;;;;;;;1.10;1.10;;;;;;;6.96;100.00;100238.38;4111435;28;20289;-48
2022/11/11 09:10:32;;;;;;;1.20;1.15;;;;;;;7.06;100.00;100236.25;4128911;28;20300;-48
2022/11/11 09:12:33;;;;;;;1.35;1.25;;;;;;;7.16;100.00;100239.53;4129224;28;20253;-48
2022/11/11 09:14:35;;;;;;;1.48;1.25;;;;;;;7.23;100.00;100239.63;4133472;28;20730;-48
2022/11/11 09:16:37;;;;;;;2.75;1.55;;;;;;;7.37;100.00;100236.91;4146101;28;20205;-49
2022/11/11 09:18:39;;;;;;;2.13;1.92;;;;;;;7.37;100.00;100244.25;4130601;28;20219;-48
2022/11/11 09:20:40;;;;;;;2.03;1.83;;;;;;;7.39;100.00;100244.88;4131239;28;20260;-48
2022/11/11 09:22:42;;;;;;;1.70;1.60;;;;;;;7.44;100.00;100245.19;4128831;28;20673;-49
2022/11/11 09:24:44;;;;;;;1.70;1.60;;;;;;;7.49;100.00;100242.75;4113633;28;20209;-48
2022/11/11 09:26:48;;;;;;;1.50;1.40;;;;;;;7.22;100.00;100246.13;4132224;28;20213;-49
2022/11/11 09:28:53;;;;;;;2.17;1.27;;;;;;;6.70;100.00;100248.81;4130367;28;20298;-49
2022/11/11 09:31:02;;;;;;;1.50;1.40;;;;;;;6.95;100.00;100247.56;4139040;28;20626;-49
2022/11/11 09:33:24;;;;;;;1.38;1.27;;;;;;;7.04;100.00;100251.06;4127524;28;20256;-49
2022/11/11 09:35:26;;;;;;;1.77;1.67;;;;;;;7.12;100.00;100254.56;4137303;28;20586;-50
2022/11/11 09:37:28;;;;;;;1.40;1.30;;;;;;;7.10;100.00;100250.31;4123685;28;20652;-48
2022/11/11 09:39:30;;;;;;;1.70;1.60;;;;;;;7.24;100.00;100258.53;4138083;28;20213;-48
2022/11/11 09:41:50;;;;;;;1.40;1.30;;;;;;;7.32;100.00;100257.56;4137894;28;20267;-48
2022/11/11 09:43:59;;;;;;;1.42;1.40;;;;;;;7.20;100.00;100257.19;4134038;28;20291;-48
2022/11/11 09:46:15;;;;;;;1.73;1.63;;;;;;;7.25;100.00;100256.63;4134386;28;20292;-48
2022/11/11 09:48:36;;;;;;;1.75;1.55;;;;;;;7.35;100.00;100255.31;4149254;28;20205;-48
2022/11/11 09:50:39;;;;;;;1.85;1.75;;;;;;;7.50;100.00;100258.88;4136709;28;20364;-49
2022/11/11 09:53:00;;;;;;;1.60;1.50;;;;;;;7.15;100.00;100253.34;4134315;28;20238;-48
2022/11/11 09:55:08;;;;;;;1.75;1.65;;;;;;;7.11;100.00;100252.00;4124520;28;20293;-48
2022/11/11 09:57:23;;;;;;;2.22;2.05;;;;;;;7.19;100.00;100260.09;4136928;28;20328;-49
2022/11/11 09:59:48;;;;;;;3.22;2.20;;;;;;;6.93;100.00;100243.34;4136157;28;20293;-48
2022/11/11 10:01:53;;;;;;;1.70;1.60;;;;;;;6.95;100.00;100254.91;4120171;28;20233;-48
2022/11/11 10:04:33;;;;;;;1.95;1.85;;;;;;;6.78;100.00;100253.34;4138734;28;20221;-49
2022/11/11 10:06:35;;;;;;;2.20;2.00;;;;;;;6.95;100.00;100246.75;4133225;28;20768;-48
2022/11/11 10:08:45;;;;;;;2.45;2.22;;;;;;;7.02;100.00;100248.50;4146773;28;20343;-48
2022/11/11 10:10:50;;;;;;;1.80;1.70;;;;;;;7.23;100.00;100245.09;4129115;28;20965;-48
2022/11/11 10:12:56;;;;;;;2.45;2.25;;;;;;;7.29;100.00;100249.78;4136420;28;20235;-49
2022/11/11 10:15:00;;;;;;;2.55;2.35;;;;;;;6.97;100.00;100244.66;4118489;28;20260;-49
2022/11/11 10:17:23;;;;;;;3.22;3.00;;;;;;;7.03;100.00;100233.03;4130450;28;20222;-49
2022/11/11 10:19:32;;;;;;;3.92;3.17;;;;;;;7.10;100.00;100231.28;4127490;28;20889;-48
2022/11/11 10:21:46;;;;;;;2.83;2.63;;;;;;;7.08;100.00;100219.72;4129613;28;20308;-49
2022/11/11 10:24:16;;;;;;;2.97;2.67;;;;;;;7.22;100.00;100227.06;4133059;28;20215;-50
2022/11/11 10:26:20;;;;;;;2.35;2.08;;;;;;;7.30;100.00;100226.97;4128990;28;22141;-49
2022/11/11 10:28:26;;;;;;;3.05;2.85;;;;;;;7.32;100.00;100223.03;4135117;28;20259;-50
2022/11/11 10:30:31;;;;;;;3.25;3.05;;;;;;;7.28;100.00;100229.03;4140373;28;20272;-50
2022/11/11 10:32:34;;;;;;;3.45;3.25;;;;;;;7.26;100.00;100220.19;4137731;28;20635;-50
2022/11/11 10:34:36;;;;;;;3.97;3.67;;;;;;;7.37;100.00;100214.28;4137349;28;20306;-50
2022/11/11 10:36:54;;;;;;;3.15;2.95;;;;;;;7.19;100.00;100222.84;4153650;28;20205;-49
2022/11/11 10:38:57;;;;;;;2.92;2.63;;;;;;;7.27;100.00;100219.16;4135456;28;20216;-49
2022/11/11 10:41:27;;;;;;;3.45;3.15;;;;;;;7.42;100.00;100217.31;4138099;28;20213;-49
2022/11/11 10:43:29;;;;;;;2.80;2.60;;;;;;;7.28;100.00;100220.88;4121536;28;20279;-50
2022/11/11 10:45:51;;;;;;;3.08;2.78;;;;;;;7.56;100.00;100221.88;4133326;28;20651;-49
2022/11/11 10:48:02;;;;;;;2.75;2.55;;;;;;;7.56;100.00;100219.16;4138489;28;20209;-50
2022/11/11 10:50:22;;;;;;;2.28;2.08;;;;;;;7.23;100.00;100226.03;4139748;28;20241;-49
2022/11/11 10:52:41;;;;;;;3.38;3.05;;;;;;;6.92;100.00;100219.88;4111981;28;20293;-46